F100 — IZ9520 — position and weather

sailwx.info

Track history (hours):
 
Tides and Currents Weather Stations Pressure Air Temp Water Temp Dewpoint Dewpoint Depression Visibility Wind Speed Wind Dir Waves Ship Positions

F100

Last reported at 2014-Aug-10 16:15 UTC. Time now 2014-Aug-23 15:22 UTC.
Position N 37°48' E 023°27'.
Warning: this ship's position is 12 days out of date.

Length 32 m; draft 3.2 m.

Type: Pleasure craft. MMSI: 247387000.

Date/timePositionNaut miles runAvg speedWind from/ knotsBaromVisibWave heightAir tempDewpointWater temp
2014-Aug-10 16:15N 37°48' E 023°27'811.8
2014-Aug-10 15:33N 37°53' E 023°35'5 2.1
2014-Aug-10 13:21N 37°56' E 023°39'0 0.0
2014-Aug-10 12:33N 37°56' E 023°39'10 9.7
2014-Aug-10 11:33N 37°50' E 023°30'  
2014-Aug-08 06:09N 37°21' E 024°53'711.8
2014-Aug-08 05:33N 37°21' E 025°02'1111.5
2014-Aug-08 04:33N 37°22' E 025°17'4 1.1
2014-Aug-08 01:15N 37°24' E 025°21'0 0.0
2014-Aug-08 00:15N 37°24' E 025°21'1 0.1
2014-Aug-07 16:30N 37°24' E 025°20'3 3.5
2014-Aug-07 15:31N 37°23' E 025°16'0 0.0
2014-Aug-07 14:31N 37°23' E 025°16'0 0.0
2014-Aug-07 13:31N 37°23' E 025°16'0 0.0
2014-Aug-07 12:28N 37°23' E 025°16'0 0.0
2014-Aug-07 11:31N 37°23' E 025°16'0 0.0
2014-Aug-07 10:22N 37°23' E 025°16'1 1.2
2014-Aug-07 09:33N 37°23' E 025°16'5 0.3
2014-Aug-06 19:33N 37°25' E 025°21'0 0.0
2014-Aug-06 12:32N 37°25' E 025°21'0 0.0
2014-Aug-06 11:21N 37°25' E 025°21'0 0.0
2014-Aug-06 10:32N 37°25' E 025°21'8 8.3
2014-Aug-06 09:33N 37°21' E 025°11'1211.8
2014-Aug-06 08:33N 37°21' E 024°56'62 2.3
2014-Aug-05 05:33N 37°46' E 023°44'11 5.1
2014-Aug-05 03:28N 37°56' E 023°39'0 0.0
2014-Aug-04 22:19N 37°56' E 023°39'0 0.0
2014-Aug-04 19:10N 37°56' E 023°39'0 0.0
2014-Aug-04 15:13N 37°56' E 023°39'0 0.0
2014-Aug-04 13:31N 37°56' E 023°39'0 0.0
2014-Aug-04 07:22N 37°56' E 023°39'0 0.0
2014-Aug-04 04:25N 37°56' E 023°39'0 0.0
2014-Aug-03 22:19N 37°56' E 023°39'0 0.0
2014-Aug-03 21:22N 37°56' E 023°39'0 0.0
2014-Aug-03 08:16N 37°56' E 023°39'0 0.0
2014-Aug-03 05:30N 37°56' E 023°39'0 0.0
2014-Aug-03 04:31N 37°56' E 023°39'0 0.0
2014-Aug-03 03:32N 37°56' E 023°39'0 0.0
2014-Aug-03 02:27N 37°56' E 023°39'0 0.0
2014-Aug-03 01:31N 37°56' E 023°39'0 0.0
2014-Aug-03 00:31N 37°56' E 023°39'0 0.0
2014-Aug-02 23:29N 37°56' E 023°39'0 0.0
2014-Aug-02 22:32N 37°56' E 023°39'0 0.0
2014-Aug-02 21:34N 37°56' E 023°39'0 0.0
2014-Aug-02 20:20N 37°56' E 023°39'0 0.0
2014-Aug-02 19:29N 37°56' E 023°39'0 0.0
2014-Aug-02 18:34N 37°56' E 023°39'0 0.0
2014-Aug-02 17:23N 37°56' E 023°39'0 0.1
2014-Aug-02 16:34N 37°56' E 023°39'1010.3
2014-Aug-02 15:33N 37°52' E 023°27'  
Track history (hours):
 
Tides and Currents Weather Stations Pressure Air Temp Water Temp Dewpoint Dewpoint Depression Visibility Wind Speed Wind Dir Waves Ship Positions

F100

Last reported at 2014-Aug-10 16:15 UTC. Time now 2014-Aug-23 15:22 UTC.
Position N 37°48' E 023°27'.
Warning: this ship's position is 12 days out of date.

Length 32 m; draft 3.2 m.

Type: Pleasure craft. MMSI: 247387000.

Date/timePositionNaut miles runAvg speedWind from/ knotsBaromVisibWave heightAir tempDewpointWater temp
2014-Aug-10 16:15N 37°48' E 023°27'811.8
2014-Aug-10 15:33N 37°53' E 023°35'5 2.1
2014-Aug-10 13:21N 37°56' E 023°39'0 0.0
2014-Aug-10 12:33N 37°56' E 023°39'10 9.7
2014-Aug-10 11:33N 37°50' E 023°30'  
2014-Aug-08 06:09N 37°21' E 024°53'711.8
2014-Aug-08 05:33N 37°21' E 025°02'1111.5
2014-Aug-08 04:33N 37°22' E 025°17'4 1.1
2014-Aug-08 01:15N 37°24' E 025°21'0 0.0
2014-Aug-08 00:15N 37°24' E 025°21'1 0.1
2014-Aug-07 16:30N 37°24' E 025°20'3 3.5
2014-Aug-07 15:31N 37°23' E 025°16'0 0.0
2014-Aug-07 14:31N 37°23' E 025°16'0 0.0
2014-Aug-07 13:31N 37°23' E 025°16'0 0.0
2014-Aug-07 12:28N 37°23' E 025°16'0 0.0
2014-Aug-07 11:31N 37°23' E 025°16'0 0.0
2014-Aug-07 10:22N 37°23' E 025°16'1 1.2
2014-Aug-07 09:33N 37°23' E 025°16'5 0.3
2014-Aug-06 19:33N 37°25' E 025°21'0 0.0
2014-Aug-06 12:32N 37°25' E 025°21'0 0.0
2014-Aug-06 11:21N 37°25' E 025°21'0 0.0
2014-Aug-06 10:32N 37°25' E 025°21'8 8.3
2014-Aug-06 09:33N 37°21' E 025°11'1211.8
2014-Aug-06 08:33N 37°21' E 024°56'62 2.3
2014-Aug-05 05:33N 37°46' E 023°44'11 5.1
2014-Aug-05 03:28N 37°56' E 023°39'0 0.0
2014-Aug-04 22:19N 37°56' E 023°39'0 0.0
2014-Aug-04 19:10N 37°56' E 023°39'0 0.0
2014-Aug-04 15:13N 37°56' E 023°39'0 0.0
2014-Aug-04 13:31N 37°56' E 023°39'0 0.0
2014-Aug-04 07:22N 37°56' E 023°39'0 0.0
2014-Aug-04 04:25N 37°56' E 023°39'0 0.0
2014-Aug-03 22:19N 37°56' E 023°39'0 0.0
2014-Aug-03 21:22N 37°56' E 023°39'0 0.0
2014-Aug-03 08:16N 37°56' E 023°39'0 0.0
2014-Aug-03 05:30N 37°56' E 023°39'0 0.0
2014-Aug-03 04:31N 37°56' E 023°39'0 0.0
2014-Aug-03 03:32N 37°56' E 023°39'0 0.0
2014-Aug-03 02:27N 37°56' E 023°39'0 0.0
2014-Aug-03 01:31N 37°56' E 023°39'0 0.0
2014-Aug-03 00:31N 37°56' E 023°39'0 0.0
2014-Aug-02 23:29N 37°56' E 023°39'0 0.0
2014-Aug-02 22:32N 37°56' E 023°39'0 0.0
2014-Aug-02 21:34N 37°56' E 023°39'0 0.0
2014-Aug-02 20:20N 37°56' E 023°39'0 0.0
2014-Aug-02 19:29N 37°56' E 023°39'0 0.0
2014-Aug-02 18:34N 37°56' E 023°39'0 0.0
2014-Aug-02 17:23N 37°56' E 023°39'0 0.1
2014-Aug-02 16:34N 37°56' E 023°39'1010.3
2014-Aug-02 15:33N 37°52' E 023°27'  

Dump ship's entire track history